sensor_id;sensor_type;location;lat;lon;timestamp;pressure;altitude;pressure_sealevel;temperature;humidity
61318;BME280;47201;40.428;-8.436;2023-05-15T00:00:29;101185.91;;;13.42;100.00
61318;BME280;47201;40.428;-8.436;2023-05-15T00:02:29;101185.91;;;13.42;100.00
61318;BME280;47201;40.428;-8.436;2023-05-15T00:04:32;101188.56;;;13.39;100.00
61318;BME280;47201;40.428;-8.436;2023-05-15T00:06:33;101188.53;;;13.36;100.00
61318;BME280;47201;40.428;-8.436;2023-05-15T00:08:34;101188.53;;;13.33;100.00
61318;BME280;47201;40.428;-8.436;2023-05-15T00:10:53;101187.69;;;13.28;100.00
61318;BME280;47201;40.428;-8.436;2023-05-15T00:13:12;101181.63;;;13.21;100.00
61318;BME280;47201;40.428;-8.436;2023-05-15T00:15:12;101175.53;;;13.13;100.00
61318;BME280;47201;40.428;-8.436;2023-05-15T00:17:31;101180.78;;;13.11;100.00
61318;BME280;47201;40.428;-8.436;2023-05-15T00:19:31;101175.56;;;13.08;100.00
61318;BME280;47201;40.428;-8.436;2023-05-15T00:21:32;101172.94;;;13.07;100.00
61318;BME280;47201;40.428;-8.436;2023-05-15T00:23:33;101177.31;;;13.09;100.00
61318;BME280;47201;40.428;-8.436;2023-05-15T00:25:34;101174.69;;;13.05;100.00
61318;BME280;47201;40.428;-8.436;2023-05-15T00:27:53;101174.66;;;13.12;100.00
61318;BME280;47201;40.428;-8.436;2023-05-15T00:29:53;101177.28;;;13.12;100.00
61318;BME280;47201;40.428;-8.436;2023-05-15T00:32:13;101179.06;;;13.07;100.00
61318;BME280;47201;40.428;-8.436;2023-05-15T00:34:33;101177.34;;;13.00;100.00
61318;BME280;47201;40.428;-8.436;2023-05-15T00:36:33;101182.63;;;12.94;100.00
61318;BME280;47201;40.428;-8.436;2023-05-15T00:38:34;101185.25;;;12.88;100.00
61318;BME280;47201;40.428;-8.436;2023-05-15T00:40:37;101183.50;;;12.83;100.00
61318;BME280;47201;40.428;-8.436;2023-05-15T00:42:38;101180.03;;;12.83;100.00
61318;BME280;47201;40.428;-8.436;2023-05-15T00:44:38;101188.75;;;12.85;100.00
61318;BME280;47201;40.428;-8.436;2023-05-15T00:46:41;101185.25;;;12.91;100.00
61318;BME280;47201;40.428;-8.436;2023-05-15T00:48:42;101173.88;;;12.95;100.00
61318;BME280;47201;40.428;-8.436;2023-05-15T00:50:43;101169.47;;;12.97;100.00
61318;BME280;47201;40.428;-8.436;2023-05-15T00:52:44;101164.16;;;13.08;100.00
61318;BME280;47201;40.428;-8.436;2023-05-15T00:54:47;101163.28;;;13.12;100.00
61318;BME280;47201;40.428;-8.436;2023-05-15T00:56:49;101157.97;;;13.24;100.00
61318;BME280;47201;40.428;-8.436;2023-05-15T00:58:50;101163.19;;;13.32;100.00
61318;BME280;47201;40.428;-8.436;2023-05-15T01:00:53;101157.03;;;13.44;100.00
61318;BME280;47201;40.428;-8.436;2023-05-15T01:03:12;101157.81;;;13.57;100.00
61318;BME280;47201;40.428;-8.436;2023-05-15T01:05:12;101148.09;;;13.67;100.00
61318;BME280;47201;40.428;-8.436;2023-05-15T01:07:14;101154.19;;;13.73;100.00
61318;BME280;47201;40.428;-8.436;2023-05-15T01:09:17;101153.28;;;13.79;100.00
61318;BME280;47201;40.428;-8.436;2023-05-15T01:11:18;101149.75;;;13.78;100.00
61318;BME280;47201;40.428;-8.436;2023-05-15T01:13:21;101155.94;;;13.77;100.00
61318;BME280;47201;40.428;-8.436;2023-05-15T01:15:22;101159.41;;;13.78;100.00
61318;BME280;47201;40.428;-8.436;2023-05-15T01:17:41;101162.03;;;13.78;100.00
61318;BME280;47201;40.428;-8.436;2023-05-15T01:19:42;101162.03;;;13.81;100.00
61318;BME280;47201;40.428;-8.436;2023-05-15T01:24:03;101158.50;;;13.84;100.00
61318;BME280;47201;40.428;-8.436;2023-05-15T01:28:18;101133.03;;;13.89;100.00
61318;BME280;47201;40.428;-8.436;2023-05-15T01:32:23;101144.44;;;13.88;100.00
61318;BME280;47201;40.428;-8.436;2023-05-15T01:37:17;101147.00;;;13.94;100.00
61318;BME280;47201;40.428;-8.436;2023-05-15T01:39:35;101151.34;;;14.00;100.00
61318;BME280;47201;40.428;-8.436;2023-05-15T01:41:45;101145.19;;;14.02;100.00
61318;BME280;47201;40.428;-8.436;2023-05-15T01:43:58;101156.56;;;14.06;100.00
61318;BME280;47201;40.428;-8.436;2023-05-15T01:46:01;101155.69;;;14.05;100.00
61318;BME280;47201;40.428;-8.436;2023-05-15T01:48:08;101143.38;;;14.07;100.00
61318;BME280;47201;40.428;-8.436;2023-05-15T01:50:10;101156.50;;;14.12;100.00
61318;BME280;47201;40.428;-8.436;2023-05-15T01:54:17;101145.09;;;14.15;100.00
61318;BME280;47201;40.428;-8.436;2023-05-15T01:56:18;101149.34;;;14.28;100.00
61318;BME280;47201;40.428;-8.436;2023-05-15T01:58:20;101145.81;;;14.31;100.00
61318;BME280;47201;40.428;-8.436;2023-05-15T02:00:23;101146.66;;;14.31;100.00
61318;BME280;47201;40.428;-8.436;2023-05-15T02:02:25;101155.47;;;14.28;100.00
61318;BME280;47201;40.428;-8.436;2023-05-15T02:04:29;101157.31;;;14.19;100.00
61318;BME280;47201;40.428;-8.436;2023-05-15T02:06:48;101146.00;;;14.10;100.00
61318;BME280;47201;40.428;-8.436;2023-05-15T02:08:50;101153.00;;;14.08;100.00
61318;BME280;47201;40.428;-8.436;2023-05-15T02:10:56;101146.88;;;14.09;100.00
61318;BME280;47201;40.428;-8.436;2023-05-15T02:12:58;101148.63;;;14.10;100.00
61318;BME280;47201;40.428;-8.436;2023-05-15T02:15:00;101154.84;;;14.00;100.00
61318;BME280;47201;40.428;-8.436;2023-05-15T02:17:02;101153.06;;;14.02;100.00
61318;BME280;47201;40.428;-8.436;2023-05-15T02:19:02;101145.19;;;14.05;100.00
61318;BME280;47201;40.428;-8.436;2023-05-15T02:21:22;101147.75;;;14.08;100.00
61318;BME280;47201;40.428;-8.436;2023-05-15T02:23:22;101152.16;;;14.11;100.00
61318;BME280;47201;40.428;-8.436;2023-05-15T02:25:27;101156.50;;;14.12;100.00
61318;BME280;47201;40.428;-8.436;2023-05-15T02:32:21;101147.66;;;14.19;100.00
61318;BME280;47201;40.428;-8.436;2023-05-15T02:36:36;101139.84;;;14.11;100.00
61318;BME280;47201;40.428;-8.436;2023-05-15T02:38:58;101156.50;;;14.12;100.00
61318;BME280;47201;40.428;-8.436;2023-05-15T02:40:59;101155.66;;;14.10;100.00
61318;BME280;47201;40.428;-8.436;2023-05-15T02:42:59;101147.78;;;14.07;100.00
61318;BME280;47201;40.428;-8.436;2023-05-15T02:45:19;101145.25;;;13.99;100.00
61318;BME280;47201;40.428;-8.436;2023-05-15T02:47:39;101142.69;;;13.90;100.00
61318;BME280;47201;40.428;-8.436;2023-05-15T02:49:40;101137.38;;;13.94;100.00
61318;BME280;47201;40.428;-8.436;2023-05-15T02:51:40;101146.16;;;13.93;100.00
61318;BME280;47201;40.428;-8.436;2023-05-15T02:53:42;101142.63;;;13.93;100.00
61318;BME280;47201;40.428;-8.436;2023-05-15T02:56:01;101148.75;;;13.98;100.00
61318;BME280;47201;40.428;-8.436;2023-05-15T02:58:21;101142.59;;;14.01;100.00
61318;BME280;47201;40.428;-8.436;2023-05-15T03:00:40;101144.38;;;13.94;100.00
61318;BME280;47201;40.428;-8.436;2023-05-15T03:02:42;101141.75;;;13.94;100.00
61318;BME280;47201;40.428;-8.436;2023-05-15T03:04:42;101140.84;;;13.98;100.00
61318;BME280;47201;40.428;-8.436;2023-05-15T03:07:01;101135.63;;;13.93;100.00
61318;BME280;47201;40.428;-8.436;2023-05-15T03:09:03;101134.75;;;13.93;100.00
61318;BME280;47201;40.428;-8.436;2023-05-15T03:11:03;101132.13;;;13.93;100.00
61318;BME280;47201;40.428;-8.436;2023-05-15T03:13:05;101125.13;;;13.93;100.00
61318;BME280;47201;40.428;-8.436;2023-05-15T03:15:24;101122.47;;;13.98;100.00
61318;BME280;47201;40.428;-8.436;2023-05-15T03:17:25;101126.81;;;14.01;100.00
61318;BME280;47201;40.428;-8.436;2023-05-15T03:19:26;101122.41;;;14.01;100.00
61318;BME280;47201;40.428;-8.436;2023-05-15T03:21:26;101124.16;;;14.02;100.00
61318;BME280;47201;40.428;-8.436;2023-05-15T03:23:27;101118.88;;;14.07;100.00
61318;BME280;47201;40.428;-8.436;2023-05-15T03:25:27;101110.00;;;14.16;100.00
61318;BME280;47201;40.428;-8.436;2023-05-15T03:27:27;101105.56;;;14.22;100.00
61318;BME280;47201;40.428;-8.436;2023-05-15T03:29:29;101112.47;;;14.34;100.00
61318;BME280;47201;40.428;-8.436;2023-05-15T03:31:29;101108.97;;;14.32;100.00
61318;BME280;47201;40.428;-8.436;2023-05-15T03:33:30;101110.75;;;14.32;100.00
61318;BME280;47201;40.428;-8.436;2023-05-15T03:35:31;101104.53;;;14.37;100.00
61318;BME280;47201;40.428;-8.436;2023-05-15T03:37:50;101107.22;;;14.33;100.00
61318;BME280;47201;40.428;-8.436;2023-05-15T03:39:51;101109.84;;;14.31;100.00
61318;BME280;47201;40.428;-8.436;2023-05-15T03:41:51;101112.53;;;14.26;100.00
61318;BME280;47201;40.428;-8.436;2023-05-15T03:43:52;101108.22;;;14.21;100.00
61318;BME280;47201;40.428;-8.436;2023-05-15T03:45:52;101114.34;;;14.21;100.00
61318;BME280;47201;40.428;-8.436;2023-05-15T03:47:54;101106.50;;;14.17;100.00
61318;BME280;47201;40.428;-8.436;2023-05-15T03:49:54;101102.97;;;14.18;100.00
61318;BME280;47201;40.428;-8.436;2023-05-15T03:51:55;101103.75;;;14.27;100.00
61318;BME280;47201;40.428;-8.436;2023-05-15T03:53:57;101102.03;;;14.25;100.00
61318;BME280;47201;40.428;-8.436;2023-05-15T03:55:58;101100.31;;;14.22;100.00
61318;BME280;47201;40.428;-8.436;2023-05-15T03:57:59;101100.34;;;14.19;100.00
61318;BME280;47201;40.428;-8.436;2023-05-15T04:00:01;101104.72;;;14.19;100.00
61318;BME280;47201;40.428;-8.436;2023-05-15T04:02:23;101102.97;;;14.21;100.00
61318;BME280;47201;40.428;-8.436;2023-05-15T04:04:24;101101.19;;;14.21;100.00
61318;BME280;47201;40.428;-8.436;2023-05-15T04:06:24;101102.06;;;14.20;100.00
61318;BME280;47201;40.428;-8.436;2023-05-15T04:08:24;101102.06;;;14.23;100.00
61318;BME280;47201;40.428;-8.436;2023-05-15T04:10:26;101101.16;;;14.26;100.00
61318;BME280;47201;40.428;-8.436;2023-05-15T04:12:27;101095.91;;;14.23;100.00
61318;BME280;47201;40.428;-8.436;2023-05-15T04:14:29;101090.66;;;14.23;100.00
61318;BME280;47201;40.428;-8.436;2023-05-15T04:16:29;101088.97;;;14.19;100.00
61318;BME280;47201;40.428;-8.436;2023-05-15T04:18:30;101082.84;;;14.18;100.00
61318;BME280;47201;40.428;-8.436;2023-05-15T04:20:30;101089.81;;;14.21;100.00
61318;BME280;47201;40.428;-8.436;2023-05-15T04:22:32;101080.19;;;14.20;100.00
61318;BME280;47201;40.428;-8.436;2023-05-15T04:24:34;101078.44;;;14.19;100.00
61318;BME280;47201;40.428;-8.436;2023-05-15T04:26:34;101080.22;;;14.18;100.00
61318;BME280;47201;40.428;-8.436;2023-05-15T04:28:53;101085.41;;;14.21;100.00
61318;BME280;47201;40.428;-8.436;2023-05-15T04:30:55;101089.78;;;14.22;100.00
61318;BME280;47201;40.428;-8.436;2023-05-15T04:32:57;101083.69;;;14.19;100.00
61318;BME280;47201;40.428;-8.436;2023-05-15T04:34:59;101086.41;;;14.11;100.00
61318;BME280;47201;40.428;-8.436;2023-05-15T04:37:00;101075.03;;;14.09;100.00
61318;BME280;47201;40.428;-8.436;2023-05-15T04:39:19;101081.16;;;14.11;100.00
61318;BME280;47201;40.428;-8.436;2023-05-15T04:41:20;101084.66;;;14.08;100.00
61318;BME280;47201;40.428;-8.436;2023-05-15T04:43:20;101082.91;;;14.07;100.00
61318;BME280;47201;40.428;-8.436;2023-05-15T04:45:21;101078.63;;;14.02;100.00
61318;BME280;47201;40.428;-8.436;2023-05-15T04:47:23;101073.41;;;13.97;100.00
61318;BME280;47201;40.428;-8.436;2023-05-15T04:49:42;101075.16;;;13.95;100.00
61318;BME280;47201;40.428;-8.436;2023-05-15T04:51:44;101081.34;;;13.89;100.00
61318;BME280;47201;40.428;-8.436;2023-05-15T04:53:44;101076.06;;;13.92;100.00
61318;BME280;47201;40.428;-8.436;2023-05-15T04:55:45;101073.44;;;13.92;100.00
61318;BME280;47201;40.428;-8.436;2023-05-15T04:58:04;101077.75;;;14.00;100.00
61318;BME280;47201;40.428;-8.436;2023-05-15T05:00:05;101077.75;;;14.00;100.00
61318;BME280;47201;40.428;-8.436;2023-05-15T05:02:11;101093.53;;;14.00;100.00
61318;BME280;47201;40.428;-8.436;2023-05-15T05:04:11;101080.34;;;14.01;100.00
61318;BME280;47201;40.428;-8.436;2023-05-15T05:06:12;101087.41;;;13.98;100.00
61318;BME280;47201;40.428;-8.436;2023-05-15T05:08:12;101075.16;;;13.95;100.00
61318;BME280;47201;40.428;-8.436;2023-05-15T05:10:13;101075.13;;;13.96;100.00
61318;BME280;47201;40.428;-8.436;2023-05-15T05:12:13;101084.81;;;13.94;100.00
61318;BME280;47201;40.428;-8.436;2023-05-15T05:14:32;101080.47;;;13.90;100.00
61318;BME280;47201;40.428;-8.436;2023-05-15T05:16:33;101076.16;;;13.85;100.00
61318;BME280;47201;40.428;-8.436;2023-05-15T05:18:34;101074.34;;;13.90;100.00
61318;BME280;47201;40.428;-8.436;2023-05-15T05:20:34;101072.59;;;13.89;100.00
61318;BME280;47201;40.428;-8.436;2023-05-15T05:22:36;101074.38;;;13.85;100.00
61318;BME280;47201;40.428;-8.436;2023-05-15T05:24:55;101077.91;;;13.84;100.00
61318;BME280;47201;40.428;-8.436;2023-05-15T05:26:56;101076.16;;;13.83;100.00
61318;BME280;47201;40.428;-8.436;2023-05-15T05:28:59;101084.03;;;13.86;100.00
61318;BME280;47201;40.428;-8.436;2023-05-15T05:31:02;101084.91;;;13.85;100.00
61318;BME280;47201;40.428;-8.436;2023-05-15T05:33:03;101082.28;;;13.85;100.00
61318;BME280;47201;40.428;-8.436;2023-05-15T05:35:05;101091.03;;;13.84;100.00
61318;BME280;47201;40.428;-8.436;2023-05-15T05:37:06;101090.16;;;13.85;100.00
61318;BME280;47201;40.428;-8.436;2023-05-15T05:39:06;101091.03;;;13.84;100.00
61318;BME280;47201;40.428;-8.436;2023-05-15T05:41:08;101088.44;;;13.83;100.00
61318;BME280;47201;40.428;-8.436;2023-05-15T05:43:08;101091.06;;;13.83;100.00
61318;BME280;47201;40.428;-8.436;2023-05-15T05:45:09;101087.56;;;13.84;100.00
61318;BME280;47201;40.428;-8.436;2023-05-15T05:47:09;101084.00;;;13.88;100.00
61318;BME280;47201;40.428;-8.436;2023-05-15T05:49:10;101073.41;;;13.94;100.00
61318;BME280;47201;40.428;-8.436;2023-05-15T05:51:11;101079.50;;;13.98;100.00
61318;BME280;47201;40.428;-8.436;2023-05-15T05:53:11;101078.63;;;14.00;100.00
61318;BME280;47201;40.428;-8.436;2023-05-15T05:55:12;101078.63;;;13.99;100.00
61318;BME280;47201;40.428;-8.436;2023-05-15T05:57:12;101078.63;;;14.00;100.00
61318;BME280;47201;40.428;-8.436;2023-05-15T05:59:32;101074.28;;;13.99;100.00
61318;BME280;47201;40.428;-8.436;2023-05-15T06:01:33;101091.81;;;13.97;100.00
61318;BME280;47201;40.428;-8.436;2023-05-15T06:03:33;101083.00;;;14.00;100.00
61318;BME280;47201;40.428;-8.436;2023-05-15T06:05:34;101090.84;;;14.04;100.00
61318;BME280;47201;40.428;-8.436;2023-05-15T06:07:35;101088.25;;;14.03;100.00
61318;BME280;47201;40.428;-8.436;2023-05-15T06:09:48;101095.28;;;14.01;100.00
61318;BME280;47201;40.428;-8.436;2023-05-15T06:11:49;101094.44;;;13.97;100.00
61318;BME280;47201;40.428;-8.436;2023-05-15T06:13:49;101095.28;;;14.01;100.00
61318;BME280;47201;40.428;-8.436;2023-05-15T06:15:50;101095.25;;;14.02;100.00
61318;BME280;47201;40.428;-8.436;2023-05-15T06:17:51;101091.72;;;14.06;100.00
61318;BME280;47201;40.428;-8.436;2023-05-15T06:19:52;101095.13;;;14.13;100.00
61318;BME280;47201;40.428;-8.436;2023-05-15T06:21:53;101097.69;;;14.19;100.00
61318;BME280;47201;40.428;-8.436;2023-05-15T06:23:53;101095.97;;;14.20;100.00
61318;BME280;47201;40.428;-8.436;2023-05-15T06:26:13;101092.47;;;14.18;100.00
61318;BME280;47201;40.428;-8.436;2023-05-15T06:28:13;101088.09;;;14.18;100.00
61318;BME280;47201;40.428;-8.436;2023-05-15T06:30:14;101089.81;;;14.19;100.00
61318;BME280;47201;40.428;-8.436;2023-05-15T06:32:14;101091.59;;;14.19;100.00
61318;BME280;47201;40.428;-8.436;2023-05-15T06:34:15;101093.25;;;14.29;100.00
61318;BME280;47201;40.428;-8.436;2023-05-15T06:36:34;101096.78;;;14.25;100.00
61318;BME280;47201;40.428;-8.436;2023-05-15T06:38:35;101102.03;;;14.25;100.00
61318;BME280;47201;40.428;-8.436;2023-05-15T06:40:36;101102.03;;;14.25;100.00
61318;BME280;47201;40.428;-8.436;2023-05-15T06:42:36;101099.50;;;14.17;100.00
61318;BME280;47201;40.428;-8.436;2023-05-15T06:44:37;101095.03;;;14.24;100.00
61318;BME280;47201;40.428;-8.436;2023-05-15T06:46:38;101097.63;;;14.28;100.00
61318;BME280;47201;40.428;-8.436;2023-05-15T06:48:38;101095.97;;;14.17;100.00
61318;BME280;47201;40.428;-8.436;2023-05-15T06:50:39;101098.59;;;14.20;100.00
61318;BME280;47201;40.428;-8.436;2023-05-15T06:52:39;101094.09;;;14.30;100.00
61318;BME280;47201;40.428;-8.436;2023-05-15T06:54:40;101086.19;;;14.33;100.00
61318;BME280;47201;40.428;-8.436;2023-05-15T06:56:42;101100.16;;;14.38;100.00
61318;BME280;47201;40.428;-8.436;2023-05-15T06:59:01;101097.41;;;14.46;100.00
61318;BME280;47201;40.428;-8.436;2023-05-15T07:01:01;101099.97;;;14.53;100.00
61318;BME280;47201;40.428;-8.436;2023-05-15T07:03:06;101099.16;;;14.48;100.00
61318;BME280;47201;40.428;-8.436;2023-05-15T07:05:06;101105.25;;;14.53;100.00
61318;BME280;47201;40.428;-8.436;2023-05-15T07:07:26;101101.63;;;14.62;100.00
61318;BME280;47201;40.428;-8.436;2023-05-15T07:09:26;101105.03;;;14.72;100.00
61318;BME280;47201;40.428;-8.436;2023-05-15T07:11:27;101105.88;;;14.75;100.00
61318;BME280;47201;40.428;-8.436;2023-05-15T07:13:28;101102.13;;;14.94;100.00
61318;BME280;47201;40.428;-8.436;2023-05-15T07:15:28;101105.53;;;15.03;100.00
61318;BME280;47201;40.428;-8.436;2023-05-15T07:17:30;101105.59;;;14.97;100.00
61318;BME280;47201;40.428;-8.436;2023-05-15T07:21:56;101106.25;;;15.13;100.00
61318;BME280;47201;40.428;-8.436;2023-05-15T07:23:57;101103.53;;;15.19;100.00
61318;BME280;47201;40.428;-8.436;2023-05-15T07:25:57;101108.66;;;15.30;100.00
61318;BME280;47201;40.428;-8.436;2023-05-15T07:27:58;101105.94;;;15.35;100.00
61318;BME280;47201;40.428;-8.436;2023-05-15T07:30:17;101111.91;;;15.48;100.00
61318;BME280;47201;40.428;-8.436;2023-05-15T07:32:18;101112.66;;;15.56;100.00
61318;BME280;47201;40.428;-8.436;2023-05-15T07:34:19;101108.94;;;15.68;100.00
61318;BME280;47201;40.428;-8.436;2023-05-15T07:36:20;101110.72;;;15.67;100.00
61318;BME280;47201;40.428;-8.436;2023-05-15T07:38:20;101106.22;;;15.73;100.00
61318;BME280;47201;40.428;-8.436;2023-05-15T07:40:21;101109.72;;;15.75;100.00
61318;BME280;47201;40.428;-8.436;2023-05-15T07:42:22;101111.38;;;15.79;100.00
61318;BME280;47201;40.428;-8.436;2023-05-15T07:44:23;101109.97;;;15.59;100.00
61318;BME280;47201;40.428;-8.436;2023-05-15T07:46:23;101112.63;;;15.58;100.00
61318;BME280;47201;40.428;-8.436;2023-05-15T07:48:24;101117.94;;;15.56;100.00
61318;BME280;47201;40.428;-8.436;2023-05-15T07:50:24;101115.31;;;15.54;100.00
61318;BME280;47201;40.428;-8.436;2023-05-15T07:52:25;101114.38;;;15.57;100.00
61318;BME280;47201;40.428;-8.436;2023-05-15T07:54:26;101109.84;;;15.67;100.00
61318;BME280;47201;40.428;-8.436;2023-05-15T07:56:26;101115.69;;;15.88;100.00
61318;BME280;47201;40.428;-8.436;2023-05-15T07:58:27;101119.59;;;16.15;100.00
61318;BME280;47201;40.428;-8.436;2023-05-15T08:00:27;101116.16;;;16.10;100.00
61318;BME280;47201;40.428;-8.436;2023-05-15T08:02:28;101109.09;;;16.12;100.00
61318;BME280;47201;40.428;-8.436;2023-05-15T08:04:29;101114.22;;;16.21;100.00
61318;BME280;47201;40.428;-8.436;2023-05-15T08:06:30;101110.44;;;16.34;100.00
61318;BME280;47201;40.428;-8.436;2023-05-15T08:08:32;101116.44;;;16.43;100.00
61318;BME280;47201;40.428;-8.436;2023-05-15T08:10:32;101114.44;;;16.54;100.00
61318;BME280;47201;40.428;-8.436;2023-05-15T08:12:33;101114.28;;;16.63;100.00
61318;BME280;47201;40.428;-8.436;2023-05-15T08:14:33;101121.28;;;16.64;100.00
61318;BME280;47201;40.428;-8.436;2023-05-15T08:16:34;101119.25;;;16.79;100.00
61318;BME280;47201;40.428;-8.436;2023-05-15T08:18:34;101112.44;;;16.67;100.00
61318;BME280;47201;40.428;-8.436;2023-05-15T08:20:38;101103.97;;;16.95;100.00
61318;BME280;47201;40.428;-8.436;2023-05-15T08:22:39;101104.38;;;17.17;100.00
61318;BME280;47201;40.428;-8.436;2023-05-15T08:24:40;101110.16;;;17.35;100.00
61318;BME280;47201;40.428;-8.436;2023-05-15T08:26:40;101112.16;;;17.23;100.00
61318;BME280;47201;40.428;-8.436;2023-05-15T08:28:59;101106.50;;;17.39;100.00
61318;BME280;47201;40.428;-8.436;2023-05-15T08:31:00;101109.44;;;17.26;100.00
61318;BME280;47201;40.428;-8.436;2023-05-15T08:33:01;101111.00;;;17.35;100.00
61318;BME280;47201;40.428;-8.436;2023-05-15T08:35:01;101114.13;;;17.53;100.00
61318;BME280;47201;40.428;-8.436;2023-05-15T08:37:02;101107.50;;;17.71;98.84
61318;BME280;47201;40.428;-8.436;2023-05-15T08:39:05;101105.44;;;17.82;98.96
61318;BME280;47201;40.428;-8.436;2023-05-15T08:41:13;101102.69;;;17.87;96.75
61318;BME280;47201;40.428;-8.436;2023-05-15T08:43:17;101108.84;;;17.87;97.47
61318;BME280;47201;40.428;-8.436;2023-05-15T08:45:21;101110.69;;;17.85;97.22
61318;BME280;47201;40.428;-8.436;2023-05-15T08:47:23;101105.28;;;17.88;96.52
61318;BME280;47201;40.428;-8.436;2023-05-15T08:51:39;101102.38;;;18.01;95.84
61318;BME280;47201;40.428;-8.436;2023-05-15T08:53:40;101103.84;;;18.13;95.44
61318;BME280;47201;40.428;-8.436;2023-05-15T08:55:41;101101.50;;;18.33;94.68
61318;BME280;47201;40.428;-8.436;2023-05-15T08:58:00;101100.91;;;18.55;92.67
61318;BME280;47201;40.428;-8.436;2023-05-15T09:00:01;101097.16;;;18.62;91.27
61318;BME280;47201;40.428;-8.436;2023-05-15T09:02:03;101104.34;;;18.89;89.56
61318;BME280;47201;40.428;-8.436;2023-05-15T09:04:07;101101.22;;;18.74;89.35
61318;BME280;47201;40.428;-8.436;2023-05-15T09:06:07;101097.38;;;18.84;89.34
61318;BME280;47201;40.428;-8.436;2023-05-15T09:08:28;101099.34;;;19.36;87.86
61318;BME280;47201;40.428;-8.436;2023-05-15T09:10:30;101110.38;;;20.06;84.50
61318;BME280;47201;40.428;-8.436;2023-05-15T09:12:34;101108.19;;;21.14;79.87
61318;BME280;47201;40.428;-8.436;2023-05-15T09:14:35;101106.91;;;22.51;71.55
61318;BME280;47201;40.428;-8.436;2023-05-15T09:16:39;101111.09;;;24.22;61.21
61318;BME280;47201;40.428;-8.436;2023-05-15T09:18:39;101108.97;;;26.05;54.74
61318;BME280;47201;40.428;-8.436;2023-05-15T09:20:40;101108.84;;;26.07;53.78
61318;BME280;47201;40.428;-8.436;2023-05-15T09:22:41;101117.47;;;26.86;53.78
61318;BME280;47201;40.428;-8.436;2023-05-15T09:24:43;101119.66;;;28.29;49.19
61318;BME280;47201;40.428;-8.436;2023-05-15T09:27:04;101120.53;;;29.78;47.09
61318;BME280;47201;40.428;-8.436;2023-05-15T09:29:05;101114.97;;;29.68;46.31
61318;BME280;47201;40.428;-8.436;2023-05-15T09:31:05;101130.34;;;29.55;47.92
61318;BME280;47201;40.428;-8.436;2023-05-15T09:33:08;101123.84;;;28.46;50.29
61318;BME280;47201;40.428;-8.436;2023-05-15T09:35:26;101126.06;;;27.33;53.88
61318;BME280;47201;40.428;-8.436;2023-05-15T09:37:28;101125.31;;;26.01;59.07
61318;BME280;47201;40.428;-8.436;2023-05-15T09:39:29;101119.63;;;25.28;61.98
61318;BME280;47201;40.428;-8.436;2023-05-15T09:41:29;101106.97;;;25.16;62.84
61318;BME280;47201;40.428;-8.436;2023-05-15T09:43:32;101110.59;;;25.31;62.14
61318;BME280;47201;40.428;-8.436;2023-05-15T09:45:33;101107.91;;;25.47;61.69
61318;BME280;47201;40.428;-8.436;2023-05-15T09:47:33;101113.81;;;26.58;58.09
61318;BME280;47201;40.428;-8.436;2023-05-15T09:49:34;101109.97;;;28.13;53.79
61318;BME280;47201;40.428;-8.436;2023-05-15T09:51:34;101099.81;;;29.43;50.93
61318;BME280;47201;40.428;-8.436;2023-05-15T09:53:36;101101.19;;;30.77;48.00
61318;BME280;47201;40.428;-8.436;2023-05-15T09:55:38;101110.28;;;31.42;46.62
61318;BME280;47201;40.428;-8.436;2023-05-15T09:57:40;101110.97;;;32.19;46.13
61318;BME280;47201;40.428;-8.436;2023-05-15T09:59:45;101102.25;;;33.28;45.51
61318;BME280;47201;40.428;-8.436;2023-05-15T10:01:47;101107.41;;;33.61;46.35
61318;BME280;47201;40.428;-8.436;2023-05-15T10:04:00;101101.69;;;33.54;48.91
61318;BME280;47201;40.428;-8.436;2023-05-15T10:06:01;101101.78;;;33.82;50.39
61318;BME280;47201;40.428;-8.436;2023-05-15T10:08:03;101089.94;;;34.03;52.10
61318;BME280;47201;40.428;-8.436;2023-05-15T10:10:04;101105.25;;;33.84;54.77
61318;BME280;47201;40.428;-8.436;2023-05-15T10:12:05;101095.13;;;33.76;56.96
61318;BME280;47201;40.428;-8.436;2023-05-15T10:14:11;101091.53;;;33.95;57.89
61318;BME280;47201;40.428;-8.436;2023-05-15T10:16:12;101089.13;;;34.40;58.08
61318;BME280;47201;40.428;-8.436;2023-05-15T10:20:55;101089.28;;;34.28;60.81
61318;BME280;47201;40.428;-8.436;2023-05-15T10:22:57;101094.97;;;33.88;62.65
61318;BME280;47201;40.428;-8.436;2023-05-15T10:25:00;101092.53;;;32.65;66.62
61318;BME280;47201;40.428;-8.436;2023-05-15T10:27:02;101087.41;;;33.13;66.27
61318;BME280;47201;40.428;-8.436;2023-05-15T10:29:04;101082.25;;;32.90;67.22
61318;BME280;47201;40.428;-8.436;2023-05-15T10:31:04;101079.03;;;33.35;66.94
61318;BME280;47201;40.428;-8.436;2023-05-15T10:33:06;101081.91;;;34.21;65.94
61318;BME280;47201;40.428;-8.436;2023-05-15T10:35:08;101082.06;;;34.57;65.42
61318;BME280;47201;40.428;-8.436;2023-05-15T10:37:09;101080.03;;;33.44;67.80
61318;BME280;47201;40.428;-8.436;2023-05-15T10:39:10;101080.13;;;33.23;68.68
61318;BME280;47201;40.428;-8.436;2023-05-15T10:41:11;101082.34;;;34.16;67.55
61318;BME280;47201;40.428;-8.436;2023-05-15T10:43:13;101079.66;;;34.72;67.32
61318;BME280;47201;40.428;-8.436;2023-05-15T10:45:14;101074.34;;;35.26;66.53
61318;BME280;47201;40.428;-8.436;2023-05-15T10:47:14;101081.78;;;35.42;66.34
61318;BME280;47201;40.428;-8.436;2023-05-15T10:49:15;101070.69;;;34.71;68.14
61318;BME280;47201;40.428;-8.436;2023-05-15T10:51:34;101066.38;;;32.75;71.49
61318;BME280;47201;40.428;-8.436;2023-05-15T10:53:36;101069.56;;;33.89;70.19
61318;BME280;47201;40.428;-8.436;2023-05-15T10:55:37;101067.75;;;33.50;70.73
61318;BME280;47201;40.428;-8.436;2023-05-15T10:57:56;101060.81;;;30.86;76.05